Time;durP1;ratioP1;P1;durP2;ratioP2;P2;SDS_P1;SDS_P2;PMS_P1;PMS_P2;Temp;Humidity;BMP_temperature;BMP_pressure;BME280_temperature;BME280_humidity;BME280_pressure;Samples;Min_cycle;Max_cycle;Signal;HPM_P1;HPM_P2
2021/03/01 00:00:33;;;;;;;82.05;24.90;;;;;;;2.97;97.72;103769.09;5020841;28;20038;-77
2021/03/01 00:02:59;;;;;;;80.78;24.17;;;;;;;2.91;97.85;103764.84;5050124;28;20033;-78
2021/03/01 00:05:24;;;;;;;75.78;23.88;;;;;;;2.84;98.08;103756.28;5030558;28;20053;-79
2021/03/01 00:07:50;;;;;;;93.88;27.67;;;;;;;2.84;98.33;103773.59;5049925;28;20044;-78
2021/03/01 00:10:17;;;;;;;81.35;24.48;;;;;;;2.84;98.33;103758.88;5047462;28;20082;-77
2021/03/01 00:12:43;;;;;;;72.00;23.13;;;;;;;2.90;98.29;103769.19;5046285;28;20499;-77
2021/03/01 00:15:12;;;;;;;83.18;24.17;;;;;;;2.88;98.15;103770.06;5052797;28;20040;-78
2021/03/01 00:17:39;;;;;;;63.58;22.27;;;;;;;2.94;97.83;103772.59;5048290;28;20491;-78
2021/03/01 00:20:07;;;;;;;73.22;23.30;;;;;;;2.90;97.71;103748.44;5047959;28;20055;-78
2021/03/01 00:22:32;;;;;;;59.10;20.95;;;;;;;2.89;97.92;103751.91;5047936;28;20055;-77
2021/03/01 00:24:58;;;;;;;65.13;20.73;;;;;;;2.85;97.68;103754.59;5029608;28;20483;-78
2021/03/01 00:27:38;;;;;;;66.80;21.80;;;;;;;2.88;97.98;103765.75;5045984;28;20047;-77
2021/03/01 00:30:06;;;;;;;75.70;22.00;;;;;;;2.86;98.24;103756.28;5049714;28;20033;-77
2021/03/01 00:32:31;;;;;;;72.32;22.27;;;;;;;2.90;98.15;103765.72;5046560;28;20052;-79
2021/03/01 00:34:57;;;;;;;71.82;21.83;;;;;;;2.91;98.02;103752.72;5026633;28;20407;-78
2021/03/01 00:37:22;;;;;;;64.22;21.73;;;;;;;2.99;97.59;103746.59;5045341;28;20119;-78
2021/03/01 00:39:48;;;;;;;64.22;21.88;;;;;;;2.89;97.74;103756.25;5051003;28;20037;-79
2021/03/01 00:42:13;;;;;;;74.95;23.08;;;;;;;2.94;97.81;103757.03;5052682;28;20414;-79
2021/03/01 00:44:46;;;;;;;68.95;21.25;;;;;;;2.90;97.71;103744.97;5046273;28;20533;-79
2021/03/01 00:47:12;;;;;;;65.93;21.65;;;;;;;2.88;98.08;103739.84;5051752;28;20036;-78
2021/03/01 00:49:37;;;;;;;74.60;23.20;;;;;;;2.79;98.38;103732.19;5036067;28;20025;-81
2021/03/01 00:52:03;;;;;;;72.85;22.08;;;;;;;2.79;98.57;103736.50;5067064;28;20037;-80
2021/03/01 00:54:28;;;;;;;78.13;23.83;;;;;;;2.81;98.65;103730.44;5051201;28;20041;-80
2021/03/01 00:56:54;;;;;;;78.80;21.98;;;;;;;2.78;98.62;103735.66;5014020;28;20037;-77
2021/03/01 00:59:20;;;;;;;79.00;24.98;;;;;;;2.77;98.38;103731.38;5045144;28;20029;-79
2021/03/01 01:01:59;;;;;;;82.35;24.45;;;;;;;2.77;98.42;103723.59;5045477;28;20033;-79
2021/03/01 01:04:25;;;;;;;79.82;24.17;;;;;;;2.82;98.74;103726.94;5048031;28;20751;-80
2021/03/01 01:06:51;;;;;;;80.32;23.48;;;;;;;2.84;98.53;103725.19;5027658;28;20625;-79
2021/03/01 01:09:17;;;;;;;72.93;22.63;;;;;;;2.84;98.53;103727.78;5041134;28;20435;-80
2021/03/01 01:11:43;;;;;;;79.22;23.52;;;;;;;2.82;98.59;103726.09;5034120;28;20036;-79
2021/03/01 01:14:09;;;;;;;69.03;21.98;;;;;;;2.84;98.70;103726.94;5060583;28;20152;-78
2021/03/01 01:16:35;;;;;;;78.95;24.08;;;;;;;2.91;98.25;103725.97;5054890;28;20059;-80
2021/03/01 01:19:00;;;;;;;79.47;24.10;;;;;;;2.91;98.30;103729.41;5061124;28;20115;-80
2021/03/01 01:21:26;;;;;;;77.35;23.80;;;;;;;2.89;98.72;103735.50;5047329;28;20029;-79
2021/03/01 01:23:51;;;;;;;84.82;25.80;;;;;;;2.85;98.36;103718.28;5047122;28;20419;-78
2021/03/01 01:26:17;;;;;;;94.60;26.17;;;;;;;2.86;98.49;103725.16;5043809;28;20124;-79
2021/03/01 01:28:42;;;;;;;76.85;22.15;;;;;;;2.85;98.37;103715.69;5047987;28;20064;-79
2021/03/01 01:31:08;;;;;;;80.00;24.35;;;;;;;2.86;98.60;103707.91;5032908;28;20041;-78
2021/03/01 01:33:34;;;;;;;73.93;24.23;;;;;;;2.86;98.39;103704.41;5046970;28;20044;-80
2021/03/01 01:36:00;;;;;;;78.68;23.80;;;;;;;2.88;98.65;103713.03;5041117;28;20506;-78
2021/03/01 01:38:25;;;;;;;66.65;21.85;;;;;;;2.79;98.82;103701.09;5050912;28;20094;-80
2021/03/01 01:40:51;;;;;;;79.60;23.83;;;;;;;2.86;98.93;103699.25;5034758;28;20037;-78
2021/03/01 01:43:17;;;;;;;75.78;24.45;;;;;;;2.83;98.86;103696.72;5017585;28;20041;-80
2021/03/01 01:45:42;;;;;;;67.75;23.13;;;;;;;2.82;98.79;103700.16;5050674;28;20407;-80
2021/03/01 01:48:08;;;;;;;75.78;25.65;;;;;;;2.85;98.76;103687.16;5051162;28;20032;-80
2021/03/01 01:50:34;;;;;;;65.90;23.73;;;;;;;2.91;98.96;103694.84;5014383;28;20037;-80
2021/03/01 01:53:00;;;;;;;69.50;23.88;;;;;;;2.92;98.42;103699.16;5065751;28;20037;-80
2021/03/01 01:55:27;;;;;;;72.93;24.85;;;;;;;2.90;98.43;103698.31;5027284;28;20065;-80
2021/03/01 01:57:53;;;;;;;59.95;22.60;;;;;;;2.90;98.40;103688.81;5044389;28;20479;-79
2021/03/01 02:02:59;;;;;;;60.35;22.58;;;;;;;2.83;98.58;103687.19;5036028;28;20047;-78
2021/03/01 02:05:26;;;;;;;49.77;21.50;;;;;;;2.89;98.15;103700.03;5044185;28;20028;-78
2021/03/01 02:08:02;;;;;;;54.90;22.58;;;;;;;2.87;98.33;103696.63;5047039;28;20132;-78
2021/03/01 02:10:43;;;;;;;50.95;20.33;;;;;;;2.91;98.33;103700.03;5042882;28;20040;-78
2021/03/01 02:13:37;;;;;;;60.25;22.20;;;;;;;2.84;98.52;103696.66;5065808;28;20399;-79
2021/03/01 02:16:06;;;;;;;54.05;20.85;;;;;;;2.88;98.27;103694.88;5030656;28;20067;-79
2021/03/01 02:18:32;;;;;;;58.83;22.63;;;;;;;2.89;98.13;103700.03;5045864;28;20457;-77
2021/03/01 02:21:07;;;;;;;51.40;21.08;;;;;;;2.82;98.15;103689.81;5049771;28;20028;-78
2021/03/01 02:23:32;;;;;;;58.38;20.05;;;;;;;2.83;98.44;103699.31;5065209;28;20186;-77
2021/03/01 02:26:04;;;;;;;58.83;22.40;;;;;;;2.81;98.51;103695.88;5040402;28;20105;-79
2021/03/01 02:28:33;;;;;;;51.83;21.08;;;;;;;2.80;98.83;103702.78;5037247;28;20757;-77
2021/03/01 02:31:02;;;;;;;49.83;19.15;;;;;;;2.89;98.59;103702.63;5038529;28;20085;-80
2021/03/01 02:33:35;;;;;;;55.33;22.33;;;;;;;2.89;98.53;103701.78;5028812;28;20105;-80
2021/03/01 02:36:05;;;;;;;52.92;20.70;;;;;;;2.85;98.35;103700.13;5023493;28;20053;-79
2021/03/01 02:38:34;;;;;;;58.60;20.92;;;;;;;2.91;98.51;103708.66;5049123;28;20032;-79
2021/03/01 02:41:01;;;;;;;51.83;21.20;;;;;;;2.96;98.10;103695.63;5046811;28;20037;-78
2021/03/01 02:43:30;;;;;;;56.10;21.38;;;;;;;2.95;98.23;103706.88;5029396;28;20424;-78
2021/03/01 02:45:58;;;;;;;54.55;19.40;;;;;;;2.95;98.12;103706.88;5012612;28;20026;-78
2021/03/01 02:48:25;;;;;;;55.30;20.50;;;;;;;2.92;98.30;103700.00;5066667;28;20037;-79
2021/03/01 02:50:52;;;;;;;56.72;21.00;;;;;;;2.98;98.13;103709.44;5064035;28;20047;-77
2021/03/01 02:53:19;;;;;;;59.42;21.02;;;;;;;2.95;98.42;103711.22;5065617;28;20043;-79
2021/03/01 02:55:47;;;;;;;58.78;21.20;;;;;;;2.84;98.46;103698.41;5066445;28;20818;-78
2021/03/01 02:58:15;;;;;;;54.13;19.80;;;;;;;2.90;98.63;103709.56;5046864;28;20048;-80
2021/03/01 03:00:41;;;;;;;49.08;18.98;;;;;;;2.88;98.61;103710.44;5026644;28;20695;-79
2021/03/01 03:03:09;;;;;;;50.15;18.73;;;;;;;2.88;98.54;103705.25;5049699;28;20423;-78
2021/03/01 03:05:37;;;;;;;56.92;19.27;;;;;;;2.84;98.79;103701.84;5061949;28;20064;-79
2021/03/01 03:08:05;;;;;;;52.15;18.77;;;;;;;2.85;98.80;103705.31;5049348;28;20037;-79
2021/03/01 03:10:31;;;;;;;64.32;20.73;;;;;;;2.84;98.71;103709.63;5048096;28;20033;-78
2021/03/01 03:12:58;;;;;;;58.53;19.75;;;;;;;2.87;98.72;103706.16;5042764;28;20040;-80
2021/03/01 03:15:26;;;;;;;53.88;18.15;;;;;;;2.86;98.91;103697.53;5050480;28;20029;-80
2021/03/01 03:17:53;;;;;;;53.95;18.40;;;;;;;2.83;98.58;103705.34;5055828;28;20537;-80
2021/03/01 03:20:19;;;;;;;46.38;18.20;;;;;;;2.90;98.56;103708.69;5052304;28;20055;-80
2021/03/01 03:22:44;;;;;;;46.17;16.42;;;;;;;2.85;98.41;103710.50;5041128;28;20040;-80
2021/03/01 03:25:11;;;;;;;47.20;16.45;;;;;;;2.89;98.42;103705.22;5051921;28;20033;-79
2021/03/01 03:27:37;;;;;;;57.45;18.63;;;;;;;2.87;98.54;103707.00;5068385;28;20029;-79
2021/03/01 03:30:15;;;;;;;45.03;18.15;;;;;;;2.92;98.80;103707.78;5028036;28;20031;-80
2021/03/01 03:32:41;;;;;;;46.53;18.55;;;;;;;2.90;98.59;103706.97;5046876;28;20539;-78
2021/03/01 03:35:09;;;;;;;43.25;16.48;;;;;;;2.82;98.67;103703.63;5059498;28;20079;-78
2021/03/01 03:37:45;;;;;;;37.88;16.10;;;;;;;2.86;98.55;103710.50;5034830;28;20036;-80
2021/03/01 03:40:12;;;;;;;39.28;15.23;;;;;;;2.86;98.54;103710.50;5069390;28;20040;-79
2021/03/01 03:42:39;;;;;;;31.40;12.77;;;;;;;2.80;97.26;103714.91;5012020;28;20035;-79
2021/03/01 03:45:07;;;;;;;26.92;11.38;;;;;;;2.82;97.91;103716.56;5043769;28;20033;-79
2021/03/01 03:47:34;;;;;;;31.45;11.55;;;;;;;2.76;98.15;103700.28;5053375;28;20103;-79
2021/03/01 03:50:03;;;;;;;24.73;10.65;;;;;;;2.79;98.06;103708.88;5051651;28;20025;-79
2021/03/01 03:52:31;;;;;;;24.85;10.07;;;;;;;2.79;98.03;103716.63;5054633;28;20068;-78
2021/03/01 03:54:59;;;;;;;25.60;10.57;;;;;;;2.77;98.15;103709.75;5056476;28;20028;-79
2021/03/01 03:57:28;;;;;;;23.67;10.98;;;;;;;2.80;98.01;103720.09;5055459;28;20048;-79
2021/03/01 03:59:55;;;;;;;22.50;10.07;;;;;;;2.82;97.46;103718.31;5054751;28;20036;-79
2021/03/01 04:02:24;;;;;;;21.08;9.70;;;;;;;2.79;97.41;103713.16;5061916;28;20033;-79
2021/03/01 04:04:51;;;;;;;21.67;10.60;;;;;;;2.91;96.99;103720.78;5036359;28;20093;-80
2021/03/01 04:07:22;;;;;;;21.50;10.80;;;;;;;2.85;97.28;103721.72;5053845;28;20032;-80
2021/03/01 04:09:50;;;;;;;19.75;8.88;;;;;;;2.80;97.59;103727.84;5052846;28;20063;-79
2021/03/01 04:12:17;;;;;;;23.33;9.35;;;;;;;2.80;97.43;103725.25;5053887;28;20064;-79
2021/03/01 04:14:47;;;;;;;20.80;9.70;;;;;;;2.84;96.96;103722.59;5028431;28;20036;-79
2021/03/01 04:17:15;;;;;;;24.13;10.93;;;;;;;2.77;97.10;103720.13;5035642;28;20040;-79
2021/03/01 04:19:42;;;;;;;22.38;10.35;;;;;;;2.82;97.21;103716.56;5045770;28;20448;-79
2021/03/01 04:22:09;;;;;;;19.60;9.13;;;;;;;2.79;97.21;103711.44;5043834;28;20095;-77
2021/03/01 04:24:38;;;;;;;23.13;9.93;;;;;;;2.85;97.37;103716.53;5050240;28;20033;-79
2021/03/01 04:27:04;;;;;;;26.30;11.05;;;;;;;2.83;97.36;103715.72;5052253;28;20536;-79
2021/03/01 04:29:30;;;;;;;27.73;11.63;;;;;;;2.92;97.18;103717.31;5029857;28;20108;-79
2021/03/01 04:31:58;;;;;;;26.85;12.60;;;;;;;2.96;97.12;103725.88;5025126;28;20434;-78
2021/03/01 04:34:24;;;;;;;33.22;14.80;;;;;;;2.91;96.81;103723.38;5044689;28;20398;-78
2021/03/01 04:36:51;;;;;;;35.80;14.57;;;;;;;2.86;96.88;103717.38;5069466;28;20525;-78
2021/03/01 04:39:17;;;;;;;31.30;13.10;;;;;;;2.83;97.43;103725.22;5052041;28;20043;-76
2021/03/01 04:41:45;;;;;;;37.13;15.10;;;;;;;2.85;97.37;103728.66;5052288;28;20161;-79
2021/03/01 04:44:12;;;;;;;34.92;14.85;;;;;;;2.82;97.31;103732.13;5052163;28;20063;-79
2021/03/01 04:46:39;;;;;;;36.10;14.80;;;;;;;2.81;97.23;103739.97;5021619;28;20486;-79
2021/03/01 04:49:06;;;;;;;30.40;14.23;;;;;;;2.80;97.37;103736.47;5051257;28;20040;-79
2021/03/01 04:51:32;;;;;;;38.70;15.98;;;;;;;2.77;97.29;103733.06;5052420;28;20110;-78
2021/03/01 04:54:00;;;;;;;38.55;15.23;;;;;;;2.77;97.63;103733.06;5052436;28;20443;-76
2021/03/01 04:56:26;;;;;;;31.50;13.48;;;;;;;2.76;97.63;103741.75;5068070;28;20029;-77
2021/03/01 04:58:52;;;;;;;40.08;15.25;;;;;;;2.70;97.62;103733.16;5052144;28;20052;-79
2021/03/01 05:01:19;;;;;;;33.75;14.57;;;;;;;2.74;98.08;103726.22;5032317;28;20025;-81
2021/03/01 05:03:45;;;;;;;35.30;15.27;;;;;;;2.71;97.63;103719.34;5028616;28;20057;-78
2021/03/01 05:06:12;;;;;;;38.97;15.20;;;;;;;2.77;97.47;103736.56;5018727;28;20275;-79
2021/03/01 05:08:39;;;;;;;36.40;15.50;;;;;;;2.77;97.63;103744.31;5034970;28;20039;-79
2021/03/01 05:11:06;;;;;;;43.53;17.10;;;;;;;2.82;97.82;103737.31;5051537;28;20029;-78
2021/03/01 05:13:32;;;;;;;43.50;17.15;;;;;;;2.79;97.83;103728.72;5034499;28;20443;-78
2021/03/01 05:15:58;;;;;;;41.97;16.63;;;;;;;2.79;97.67;103732.19;5049339;28;20029;-78
2021/03/01 05:18:24;;;;;;;43.92;17.15;;;;;;;2.74;97.80;103728.81;5015272;28;20083;-80
2021/03/01 05:20:49;;;;;;;39.20;15.68;;;;;;;2.78;97.91;103730.47;5059658;28;20041;-80
2021/03/01 05:23:15;;;;;;;35.28;16.40;;;;;;;2.80;97.79;103733.03;5018143;28;20394;-79
2021/03/01 05:25:40;;;;;;;41.58;16.48;;;;;;;2.81;97.83;103739.97;5034480;28;20059;-77
2021/03/01 05:28:06;;;;;;;40.33;16.35;;;;;;;2.83;97.85;103723.50;5032320;28;20122;-77
2021/03/01 05:30:31;;;;;;;40.05;16.33;;;;;;;2.78;97.79;103720.09;5043543;28;20037;-77
2021/03/01 05:32:57;;;;;;;43.08;17.67;;;;;;;2.88;97.69;103728.59;5067232;28;20032;-78
2021/03/01 05:35:22;;;;;;;49.90;19.67;;;;;;;2.85;97.29;103716.53;5064013;28;20060;-77
2021/03/01 05:37:49;;;;;;;51.33;20.98;;;;;;;2.77;97.38;103722.69;5009723;28;20048;-79
2021/03/01 05:40:14;;;;;;;50.85;20.27;;;;;;;2.81;97.47;103734.78;5067372;28;20037;-78
2021/03/01 05:42:48;;;;;;;47.05;20.00;;;;;;;2.89;97.14;103733.75;5027862;28;20053;-78
2021/03/01 05:45:14;;;;;;;55.15;20.52;;;;;;;2.84;97.16;103732.97;5049292;28;20088;-78
2021/03/01 05:47:40;;;;;;;54.13;21.38;;;;;;;2.79;97.05;103733.91;5048731;28;20064;-78
2021/03/01 05:50:08;;;;;;;47.67;19.92;;;;;;;2.77;97.38;103733.97;5033715;28;20024;-80
2021/03/01 05:52:51;;;;;;;54.50;20.23;;;;;;;2.74;97.78;103721.03;5036124;28;20033;-78
2021/03/01 05:55:21;;;;;;;56.63;21.33;;;;;;;2.73;97.93;103724.47;5033485;28;20116;-78
2021/03/01 05:57:48;;;;;;;55.80;22.02;;;;;;;2.73;97.83;103722.78;5052113;28;20090;-78
2021/03/01 06:00:14;;;;;;;60.72;22.73;;;;;;;2.81;97.70;103727.84;5049818;28;20020;-80
2021/03/01 06:02:40;;;;;;;66.50;23.05;;;;;;;2.90;97.15;103730.28;5049758;28;20029;-79
2021/03/01 06:05:06;;;;;;;70.97;25.40;;;;;;;2.95;96.54;103727.63;5033261;28;20503;-79
2021/03/01 06:07:31;;;;;;;70.57;25.30;;;;;;;2.88;96.94;103731.19;5052254;28;20037;-79
2021/03/01 06:09:57;;;;;;;65.72;25.50;;;;;;;2.96;96.77;103724.16;5051268;28;20618;-79
2021/03/01 06:12:22;;;;;;;63.40;24.75;;;;;;;2.83;97.08;103717.44;5045635;28;20060;-80
2021/03/01 06:14:48;;;;;;;64.63;24.55;;;;;;;2.79;96.94;103731.31;5033405;28;20461;-78
2021/03/01 06:17:16;;;;;;;68.22;24.05;;;;;;;2.80;97.62;103726.13;5058970;28;20041;-80
2021/03/01 06:19:43;;;;;;;60.33;22.70;;;;;;;2.73;97.37;103719.28;5032754;28;20039;-79
2021/03/01 06:22:09;;;;;;;68.07;24.92;;;;;;;2.74;97.61;103721.03;5062016;28;20477;-81
2021/03/01 06:24:34;;;;;;;66.90;26.15;;;;;;;2.63;97.58;103713.41;5014805;28;20108;-80
2021/03/01 06:27:08;;;;;;;68.97;27.45;;;;;;;2.77;97.74;103738.25;5047344;28;20492;-79
2021/03/01 06:30:03;;;;;;;64.32;25.20;;;;;;;2.84;97.28;103739.88;5025857;28;20112;-80
2021/03/01 06:32:29;;;;;;;60.53;25.55;;;;;;;2.78;97.27;103729.63;5041751;28;20044;-80
2021/03/01 06:34:57;;;;;;;67.55;25.83;;;;;;;2.78;96.85;103729.63;5043660;28;20087;-79
2021/03/01 06:37:22;;;;;;;69.57;26.00;;;;;;;2.73;97.13;103734.84;5033133;28;20028;-78
2021/03/01 06:39:51;;;;;;;68.57;25.65;;;;;;;2.76;97.45;103731.38;5030465;28;20086;-78
2021/03/01 06:42:19;;;;;;;61.08;24.65;;;;;;;2.80;97.44;103743.41;5048450;28;20388;-80
2021/03/01 06:44:47;;;;;;;58.90;23.00;;;;;;;2.78;97.64;103747.75;5050118;28;20045;-79
2021/03/01 06:47:14;;;;;;;68.40;26.02;;;;;;;2.75;97.76;103738.31;5049673;28;20055;-79
2021/03/01 06:49:41;;;;;;;58.33;22.55;;;;;;;2.80;97.41;103741.66;5050204;28;20060;-80
2021/03/01 06:52:08;;;;;;;61.17;25.08;;;;;;;2.91;97.24;103749.28;5051013;28;20032;-79
2021/03/01 06:54:34;;;;;;;56.60;24.10;;;;;;;2.91;97.18;103750.16;5049974;28;20031;-80
2021/03/01 06:57:00;;;;;;;57.28;23.95;;;;;;;2.97;96.98;103738.81;5047705;28;20041;-78
2021/03/01 06:59:26;;;;;;;58.08;23.15;;;;;;;2.96;96.52;103751.81;5049189;28;20057;-80
2021/03/01 07:01:53;;;;;;;58.58;22.30;;;;;;;2.89;96.77;103738.09;5040092;28;20056;-80
2021/03/01 07:04:21;;;;;;;57.28;23.83;;;;;;;2.93;97.01;103742.34;5030819;28;20467;-81
2021/03/01 07:06:48;;;;;;;61.92;24.15;;;;;;;2.98;96.92;103742.28;5049493;28;20376;-79
2021/03/01 07:09:15;;;;;;;55.15;23.98;;;;;;;3.00;97.12;103743.13;5030866;28;20483;-80
2021/03/01 07:11:41;;;;;;;45.55;19.25;;;;;;;3.04;95.77;103742.19;5048910;28;20166;-79
2021/03/01 07:14:12;;;;;;;38.10;17.95;;;;;;;2.97;95.68;103738.81;5053659;28;20094;-79
2021/03/01 07:16:47;;;;;;;33.97;17.05;;;;;;;3.02;95.72;103738.78;5031945;28;20036;-77
2021/03/01 07:19:14;;;;;;;32.10;15.88;;;;;;;2.99;95.61;103728.44;5048364;28;20064;-78
2021/03/01 07:21:42;;;;;;;26.58;13.55;;;;;;;3.02;93.82;103746.53;5050654;28;20033;-78
2021/03/01 07:24:08;;;;;;;28.45;12.90;;;;;;;3.04;94.25;103745.63;5052304;28;20035;-78
2021/03/01 07:26:35;;;;;;;24.35;13.07;;;;;;;3.12;94.28;103750.69;5061976;28;20449;-79
2021/03/01 07:29:13;;;;;;;28.20;14.95;;;;;;;3.21;93.85;103745.38;5034978;28;20397;-79
2021/03/01 07:31:47;;;;;;;38.10;19.20;;;;;;;3.41;92.53;103750.22;5032765;28;20036;-80
2021/03/01 07:34:15;;;;;;;39.42;18.63;;;;;;;3.38;93.52;103755.47;5009442;28;20037;-78
2021/03/01 07:36:41;;;;;;;37.88;17.60;;;;;;;3.31;93.26;103754.72;5033045;28;20033;-79
2021/03/01 07:39:09;;;;;;;38.53;18.27;;;;;;;3.33;93.09;103767.66;5042642;28;20130;-79
2021/03/01 07:41:35;;;;;;;34.20;17.88;;;;;;;3.31;93.71;103759.91;5051474;28;20028;-78
2021/03/01 07:44:02;;;;;;;34.67;16.58;;;;;;;3.41;93.35;103763.22;5052697;28;20037;-79
2021/03/01 07:46:36;;;;;;;32.42;16.85;;;;;;;3.41;92.95;103752.81;5052764;28;20053;-79
2021/03/01 07:49:02;;;;;;;29.15;15.57;;;;;;;3.41;92.91;103759.72;5036119;28;20505;-80
2021/03/01 07:51:48;;;;;;;36.45;16.50;;;;;;;3.42;92.82;103751.94;5053314;28;20036;-79
2021/03/01 07:54:17;;;;;;;31.10;16.65;;;;;;;3.59;92.57;103748.19;5013262;28;20037;-80
2021/03/01 07:56:45;;;;;;;41.63;18.90;;;;;;;3.64;92.16;103759.34;5034787;28;20037;-79
2021/03/01 07:59:12;;;;;;;46.55;20.50;;;;;;;3.67;92.24;103757.56;5052345;28;20036;-77
2021/03/01 08:01:39;;;;;;;37.53;17.77;;;;;;;3.70;92.13;103767.88;5050301;28;20041;-79
2021/03/01 08:04:05;;;;;;;35.35;16.65;;;;;;;3.73;91.04;103764.38;5026317;28;20438;-78
2021/03/01 08:06:55;;;;;;;33.85;18.10;;;;;;;3.79;90.79;103766.00;5034441;28;20041;-80
2021/03/01 08:09:39;;;;;;;34.20;17.90;;;;;;;3.76;90.17;103766.91;5047218;28;20037;-78
2021/03/01 08:12:05;;;;;;;36.33;18.38;;;;;;;3.75;90.36;103759.13;5050850;28;20029;-78
2021/03/01 08:14:53;;;;;;;35.33;18.45;;;;;;;3.76;89.75;103766.06;5037951;28;20039;-80
2021/03/01 08:17:24;;;;;;;37.30;18.20;;;;;;;3.79;90.40;103768.59;5009104;28;20056;-78
2021/03/01 08:19:50;;;;;;;42.08;20.10;;;;;;;3.87;90.11;103770.16;5035098;28;20037;-78
2021/03/01 08:22:15;;;;;;;41.80;20.35;;;;;;;3.81;90.23;103770.28;5032588;28;20514;-79
2021/03/01 08:24:51;;;;;;;42.03;21.23;;;;;;;3.86;89.88;103768.47;5044547;28;20126;-79
2021/03/01 08:27:26;;;;;;;41.33;20.85;;;;;;;3.97;89.53;103777.78;5068955;28;20517;-77
2021/03/01 08:30:18;;;;;;;41.40;22.10;;;;;;;3.94;88.88;103776.13;5043857;28;20095;-78
2021/03/01 08:33:04;;;;;;;50.17;25.27;;;;;;;4.00;89.11;103781.19;5057860;28;20038;-79
2021/03/01 08:35:30;;;;;;;53.47;28.40;;;;;;;3.80;89.51;103778.94;5046818;28;20047;-79
2021/03/01 08:37:55;;;;;;;51.05;25.58;;;;;;;3.78;89.90;103769.47;5035255;28;20098;-78
2021/03/01 08:40:22;;;;;;;54.30;27.38;;;;;;;3.95;89.64;103772.63;5028036;28;20049;-79
2021/03/01 08:42:56;;;;;;;52.28;28.02;;;;;;;3.94;88.86;103765.72;5032019;28;20387;-79
2021/03/01 08:45:42;;;;;;;55.65;29.23;;;;;;;4.05;88.98;103773.28;5030121;28;20414;-79
2021/03/01 08:48:19;;;;;;;58.40;30.38;;;;;;;4.18;88.18;103771.31;5050465;28;20139;-77
2021/03/01 08:50:48;;;;;;;56.17;30.90;;;;;;;4.25;86.61;103776.34;5067665;28;20450;-80
2021/03/01 08:53:22;;;;;;;56.15;30.88;;;;;;;4.05;86.73;103781.97;5053368;28;20040;-82
2021/03/01 08:55:49;;;;;;;58.83;31.88;;;;;;;4.05;87.01;103771.56;5076545;28;20611;-82
2021/03/01 08:58:15;;;;;;;51.53;30.20;;;;;;;4.13;85.69;103766.22;5074629;28;20037;-81
2021/03/01 09:00:54;;;;;;;57.42;31.60;;;;;;;3.99;85.74;103781.19;5069421;28;20025;-81
2021/03/01 09:03:28;;;;;;;62.28;31.05;;;;;;;4.20;85.02;103772.13;5036654;28;20131;-81
2021/03/01 09:06:02;;;;;;;62.08;30.50;;;;;;;4.24;85.56;103776.41;5051356;28;20068;-80
2021/03/01 09:08:31;;;;;;;57.83;31.35;;;;;;;3.96;86.06;103778.69;5044657;28;20505;-80
2021/03/01 09:11:00;;;;;;;57.67;30.95;;;;;;;4.12;86.47;103771.44;5051028;28;20037;-83
2021/03/01 09:13:27;;;;;;;58.60;33.00;;;;;;;3.99;85.53;103774.25;5058682;28;20352;-82
2021/03/01 09:15:53;;;;;;;55.65;29.60;;;;;;;4.28;85.04;103780.66;5056334;28;20032;-82
2021/03/01 09:18:20;;;;;;;56.35;31.38;;;;;;;4.46;82.89;103787.19;5052862;28;20491;-80
2021/03/01 09:20:47;;;;;;;57.13;31.15;;;;;;;4.31;84.13;103777.97;5055338;28;20032;-79
2021/03/01 09:23:13;;;;;;;67.68;32.53;;;;;;;4.20;84.48;103783.41;5062189;28;20514;-80
2021/03/01 09:25:39;;;;;;;55.60;31.38;;;;;;;4.46;84.28;103784.59;5052152;28;20043;-80
2021/03/01 09:28:07;;;;;;;59.58;31.20;;;;;;;4.56;83.95;103780.06;5049561;28;20550;-78
2021/03/01 09:30:33;;;;;;;55.53;31.80;;;;;;;4.62;83.41;103780.78;5043778;28;20144;-80
2021/03/01 09:33:07;;;;;;;57.63;32.80;;;;;;;4.74;82.60;103773.59;5032262;28;20033;-80
2021/03/01 09:35:34;;;;;;;55.40;31.80;;;;;;;4.80;81.30;103787.34;5041482;28;20042;-81
2021/03/01 09:38:02;;;;;;;57.50;31.50;;;;;;;4.85;82.42;103774.22;5027781;28;20049;-79
2021/03/01 09:40:29;;;;;;;61.40;32.92;;;;;;;4.89;82.42;103786.25;5050937;28;20033;-80
2021/03/01 09:43:02;;;;;;;55.65;31.02;;;;;;;4.93;81.71;103774.03;5031158;28;20063;-80
2021/03/01 09:45:31;;;;;;;55.60;31.40;;;;;;;4.91;81.80;103771.47;5049144;28;20041;-80
2021/03/01 09:47:57;;;;;;;56.40;31.73;;;;;;;4.85;81.89;103784.63;5026992;28;20576;-81
2021/03/01 09:50:23;;;;;;;59.00;33.00;;;;;;;4.88;82.68;103788.03;5046513;28;20041;-78
2021/03/01 09:52:49;;;;;;;59.03;33.20;;;;;;;4.87;81.51;103777.63;5032819;28;20387;-80
2021/03/01 09:55:15;;;;;;;60.05;32.92;;;;;;;4.91;81.31;103791.44;5041846;28;20112;-81
2021/03/01 09:57:41;;;;;;;59.72;34.08;;;;;;;4.99;82.08;103782.56;5026326;28;20049;-80
2021/03/01 10:00:24;;;;;;;58.95;33.17;;;;;;;5.17;79.90;103781.28;5014478;28;20085;-80
2021/03/01 10:02:58;;;;;;;62.35;33.92;;;;;;;5.18;81.58;103788.19;5025792;28;20518;-80
2021/03/01 10:05:25;;;;;;;58.97;32.83;;;;;;;5.22;80.22;103792.44;5036313;28;20414;-80
2021/03/01 10:08:09;;;;;;;61.08;33.30;;;;;;;5.18;80.54;103797.72;5062301;28;20120;-79
2021/03/01 10:10:38;;;;;;;62.53;33.67;;;;;;;5.23;81.41;103795.88;5033538;28;20075;-79
2021/03/01 10:13:05;;;;;;;57.85;32.85;;;;;;;5.26;81.23;103788.84;5066624;28;20032;-80
2021/03/01 10:15:44;;;;;;;60.60;32.55;;;;;;;5.25;79.44;103794.97;5057713;28;20095;-78
2021/03/01 10:18:12;;;;;;;55.13;32.50;;;;;;;5.20;80.59;103796.81;5045710;28;20033;-79
2021/03/01 10:20:48;;;;;;;58.88;33.53;;;;;;;5.32;80.17;103797.41;5048591;28;20064;-78
2021/03/01 10:23:46;;;;;;;57.03;31.70;;;;;;;5.38;79.71;103797.25;5050483;28;20041;-79
2021/03/01 10:26:21;;;;;;;56.90;33.40;;;;;;;5.49;80.46;103791.81;5038354;28;20396;-81
2021/03/01 10:29:00;;;;;;;53.97;31.10;;;;;;;5.61;78.92;103791.47;5030259;28;20372;-81
2021/03/01 10:31:33;;;;;;;62.10;34.63;;;;;;;5.65;80.47;103791.38;5028355;28;20032;-79
2021/03/01 10:34:11;;;;;;;60.63;34.53;;;;;;;5.62;79.80;103795.81;5042062;28;20082;-80
2021/03/01 10:36:39;;;;;;;60.00;32.83;;;;;;;5.55;78.99;103807.25;5019042;28;20068;-81
2021/03/01 10:39:16;;;;;;;57.10;32.47;;;;;;;5.61;78.83;103809.69;5032182;28;20044;-79
2021/03/01 10:41:50;;;;;;;59.88;32.90;;;;;;;5.59;79.05;103811.50;5046558;28;20037;-79
2021/03/01 10:44:16;;;;;;;64.43;34.83;;;;;;;5.61;76.99;103799.28;5044458;28;20036;-79
2021/03/01 10:46:43;;;;;;;56.65;32.75;;;;;;;5.62;78.48;103811.44;5043122;28;20033;-79
2021/03/01 10:49:26;;;;;;;58.17;32.28;;;;;;;5.56;77.27;103815.03;5058409;28;20037;-77
2021/03/01 10:51:55;;;;;;;59.85;33.45;;;;;;;5.57;78.45;103813.28;5042463;28;20410;-76
2021/03/01 10:54:21;;;;;;;58.00;32.67;;;;;;;5.59;77.28;103814.09;5032120;28;20033;-78
2021/03/01 10:56:46;;;;;;;58.20;33.60;;;;;;;5.70;77.59;103809.47;5033052;28;20070;-77
2021/03/01 10:59:12;;;;;;;62.40;34.67;;;;;;;5.90;78.03;103813.31;5049107;28;20057;-78
2021/03/01 11:01:40;;;;;;;61.50;32.47;;;;;;;6.04;76.75;103809.44;5013413;28;20134;-78
2021/03/01 11:04:07;;;;;;;56.25;31.88;;;;;;;6.11;74.81;103802.34;5042928;28;20055;-78
2021/03/01 11:06:33;;;;;;;68.15;35.72;;;;;;;5.84;76.85;103807.38;5029498;28;20215;-78
2021/03/01 11:09:00;;;;;;;58.80;34.08;;;;;;;5.95;77.97;103806.22;5031869;28;20573;-79
2021/03/01 11:11:25;;;;;;;56.05;31.95;;;;;;;6.32;75.37;103798.25;5031786;28;20681;-78
2021/03/01 11:13:51;;;;;;;56.03;31.52;;;;;;;6.58;75.45;103800.13;5030869;28;20037;-79
2021/03/01 11:16:17;;;;;;;59.70;32.47;;;;;;;6.60;73.44;103800.06;5038241;28;20033;-79
2021/03/01 11:18:42;;;;;;;55.80;32.20;;;;;;;6.56;72.39;103798.47;5041672;28;20052;-80
2021/03/01 11:21:08;;;;;;;62.50;34.85;;;;;;;6.26;74.93;103788.03;5043962;28;20546;-78
2021/03/01 11:23:34;;;;;;;57.38;33.25;;;;;;;6.56;74.61;103793.25;5046177;28;20116;-78
2021/03/01 11:26:05;;;;;;;58.90;32.70;;;;;;;6.89;74.32;103793.09;5038997;28;20823;-78